Lagrange, IN (46761)

6:49 PM EDT on August 30, 2015 (GMT -0400)
Adams Lake | | Change Station
CLOSE
Current Station
Personal Weather Station
Location: Wolcottville, IN
Elevation: 955 ft
Nearby Weather Stations

Elev 955 ft 41.56 °N, 85.32 °W | Updated 2 minutes ago

Mostly Cloudy
Mostly Cloudy
82.0 °F
Feels Like 87 °F
N
2.7
Wind Variable Wind from NNW

Today
High -- | Low -- °F
--% Chance of Precip.
Yesterday
High -- | Low -- °F
Precip. -- in
7:05 AM 8:18 PM
Full, 98% visible
Pressure 30.03 in
Visibility 7.0 miles
Clouds Clear
Heat Index 87 °F
Dew Point 72 °F
Humidity 71%
Rainfall 0.00 in
Snow Depth Not available.
UV 1 out of 12
Pollen 8.00 out of 12
Air Quality Not available.
Flu Activity Not available.
METAR KIRS 302234Z AUTO 28004KT 7SM CLR 24/21 A3003 RMK AO2
Pressure 30.03 in
Visibility 7.0 miles
Clouds Clear
Heat Index 87 °F
Dew Point 72 °F
Humidity 71%
Rainfall 0.00 in
Snow Depth Not available.
UV 1 out of 12
Pollen 8.00 out of 12
Air Quality Not available.
Flu Activity Not available.
METAR KIRS 302234Z AUTO 28004KT 7SM CLR 24/21 A3003 RMK AO2

10-Day Weather Forecast

×

Almanac

Astronomy

Aug. 30, 2015 Rise Set
Actual Time
Civil Twilight
Nautical Twilight
Astronomical Twilight
Moon
Length of Visible Light
Length of Day
Tomorrow will be .
, % of the Moon is Illuminated

Today's Extremes

State Highs State Lows

Community

WunderPhotos

Upload Photos

1,851,075 photos uploaded!

WunderBlogs® & News

Nearby

Air Quality

  Air Quality AQ Index Pollutant
Not available.

Snow Depth

Station Depth Elevation

Earthquake Activity

City Distance Mag. Time & Date
Minimum magnitude displayed is 2.5.

Coastal Water Temperatures

Place Temperature

Stations

Nearby Weather Stations

Station Location Temp. Windchill Dew Point Humidity Wind Precip. Elev Updated Type